createdAt,value
2018-11-11T01:29:34.727Z,12.08
2018-11-11T01:29:35.304Z,12.11
2018-11-11T01:29:35.900Z,12.11
2018-11-11T01:29:36.500Z,12.11
2018-11-11T01:29:37.102Z,12.15
2018-11-11T01:29:37.701Z,12.06
2018-11-11T01:29:38.301Z,12.06
2018-11-11T01:29:38.905Z,12.15
2018-11-11T01:30:32.380Z,12.13
2018-11-11T01:30:32.954Z,12.08
2018-11-11T01:30:33.555Z,12.19
2018-11-11T01:30:34.153Z,12.16
2018-11-11T01:30:34.753Z,12.12
2018-11-11T01:30:35.353Z,12.11
2018-11-11T01:30:35.951Z,12.11
2018-11-11T01:30:36.553Z,12.05
2018-11-11T01:31:31.032Z,12.09
2018-11-11T01:31:31.633Z,12.11
2018-11-11T01:31:32.230Z,12.08
2018-11-11T01:31:32.831Z,12.13
2018-11-11T01:31:33.429Z,12.15
2018-11-11T01:31:34.034Z,12.05
2018-11-11T01:31:34.629Z,12.05
2018-11-11T01:31:35.229Z,12.11
2018-11-11T01:32:28.685Z,12.09
2018-11-11T01:32:29.284Z,12.09
2018-11-11T01:32:29.882Z,12.06
2018-11-11T01:32:30.482Z,12.15
2018-11-11T01:32:31.082Z,12.02
2018-11-11T01:32:31.684Z,12.13
2018-11-11T01:32:32.282Z,12.12
2018-11-11T01:32:32.883Z,12.11
2018-11-11T01:33:27.360Z,12.04
2018-11-11T01:33:27.957Z,12.11
2018-11-11T01:33:28.558Z,12.12
2018-11-11T01:33:29.159Z,12.11
2018-11-11T01:33:29.765Z,12.11
2018-11-11T01:33:30.357Z,12.12
2018-11-11T01:33:30.957Z,12.16
2018-11-11T01:33:31.556Z,12.13
2018-11-11T01:34:25.013Z,12.15
2018-11-11T01:34:25.613Z,12.16
2018-11-11T01:34:26.211Z,12.20
2018-11-11T01:34:26.809Z,12.20
2018-11-11T01:34:27.411Z,12.21
2018-11-11T01:34:28.012Z,12.20
2018-11-11T01:34:28.611Z,12.20
2018-11-11T01:34:29.210Z,12.23
2018-11-11T01:35:23.721Z,12.19
2018-11-11T01:35:24.289Z,12.15
2018-11-11T01:35:24.889Z,12.13
2018-11-11T01:35:25.485Z,12.20
2018-11-11T01:35:26.087Z,12.21
2018-11-11T01:35:26.686Z,12.20
2018-11-11T01:35:27.287Z,12.19
2018-11-11T01:35:27.886Z,12.19
2018-11-11T01:36:22.368Z,12.19
2018-11-11T01:36:22.961Z,12.15
2018-11-11T01:36:23.564Z,12.15
2018-11-11T01:36:24.161Z,12.27
2018-11-11T01:36:24.762Z,12.19
2018-11-11T01:36:25.361Z,12.19
2018-11-11T01:36:25.960Z,12.15
2018-11-11T01:36:26.561Z,12.26
2018-11-11T01:37:20.018Z,12.15
2018-11-11T01:37:20.615Z,12.21
2018-11-11T01:37:21.214Z,12.15
2018-11-11T01:37:21.814Z,12.15
2018-11-11T01:37:22.414Z,12.26
2018-11-11T01:37:23.015Z,12.15
2018-11-11T01:37:23.615Z,12.20
2018-11-11T01:37:24.215Z,12.19
2018-11-11T01:38:17.669Z,12.19
2018-11-11T01:38:18.267Z,12.30
2018-11-11T01:38:18.869Z,12.30
2018-11-11T01:38:19.471Z,12.29
2018-11-11T01:38:20.066Z,12.26
2018-11-11T01:38:20.669Z,12.30
2018-11-11T01:38:21.266Z,12.23
2018-11-11T01:38:21.871Z,12.29
2018-11-11T01:39:16.348Z,12.26
2018-11-11T01:39:16.941Z,12.31
2018-11-11T01:39:17.542Z,12.29
2018-11-11T01:39:18.142Z,12.31
2018-11-11T01:39:18.741Z,12.31
2018-11-11T01:39:19.340Z,12.31
2018-11-11T01:39:19.941Z,12.31
2018-11-11T01:39:20.540Z,12.29
2018-11-11T01:40:15.022Z,12.33
2018-11-11T01:40:15.618Z,12.31
2018-11-11T01:40:16.223Z,12.29
2018-11-11T01:40:16.818Z,12.26
2018-11-11T01:40:17.418Z,12.33
2018-11-11T01:40:18.019Z,12.29
2018-11-11T01:40:18.617Z,12.31
2018-11-11T01:40:19.218Z,12.34
2018-11-11T01:41:13.720Z,12.34
2018-11-11T01:41:14.293Z,12.30
2018-11-11T01:41:14.894Z,12.30
2018-11-11T01:41:15.494Z,12.33
2018-11-11T01:41:16.093Z,12.27
2018-11-11T01:41:16.694Z,12.31
2018-11-11T01:41:17.294Z,12.30
2018-11-11T01:41:17.892Z,12.21
2018-11-11T01:42:11.348Z,12.29
2018-11-11T01:42:11.946Z,12.33
2018-11-11T01:42:12.545Z,12.34
2018-11-11T01:42:13.146Z,12.39
2018-11-11T01:42:13.747Z,12.34
2018-11-11T01:42:14.347Z,12.44
2018-11-11T01:42:14.945Z,12.30
2018-11-11T01:42:15.546Z,12.27
2018-11-11T01:43:10.026Z,12.37
2018-11-11T01:43:10.621Z,12.37
2018-11-11T01:43:11.222Z,12.46
2018-11-11T01:43:11.822Z,12.48
2018-11-11T01:43:12.421Z,12.44
2018-11-11T01:43:13.022Z,12.33
2018-11-11T01:43:13.622Z,12.34
2018-11-11T01:43:14.220Z,12.38
2018-11-11T01:44:08.702Z,12.44
2018-11-11T01:44:09.296Z,12.42
2018-11-11T01:44:09.897Z,12.39
2018-11-11T01:44:10.499Z,12.42
2018-11-11T01:44:11.096Z,12.48
2018-11-11T01:44:11.697Z,12.34
2018-11-11T01:44:12.296Z,12.42
2018-11-11T01:44:12.894Z,12.34
2018-11-11T01:45:06.354Z,12.41
2018-11-11T01:45:06.950Z,12.42
2018-11-11T01:45:07.549Z,12.42
2018-11-11T01:45:08.152Z,12.48
2018-11-11T01:45:08.752Z,12.39
2018-11-11T01:45:09.346Z,12.42
2018-11-11T01:45:09.951Z,12.44
2018-11-11T01:45:10.548Z,12.41
2018-11-11T01:46:04.031Z,12.42
2018-11-11T01:46:04.602Z,12.51
2018-11-11T01:46:05.207Z,12.44
2018-11-11T01:46:05.802Z,12.54
2018-11-11T01:46:06.403Z,12.52
2018-11-11T01:46:07.000Z,12.54
2018-11-11T01:46:07.601Z,12.51
2018-11-11T01:46:08.202Z,12.42
2018-11-11T01:47:01.657Z,12.51
2018-11-11T01:47:02.258Z,12.51
2018-11-11T01:47:02.857Z,12.56
2018-11-11T01:47:03.452Z,12.51
2018-11-11T01:47:04.051Z,12.52
2018-11-11T01:47:04.652Z,12.51
2018-11-11T01:47:05.252Z,12.52
2018-11-11T01:47:05.851Z,12.51
2018-11-11T01:48:00.332Z,12.51
2018-11-11T01:48:00.928Z,12.56
2018-11-11T01:48:01.527Z,12.54
2018-11-11T01:48:02.135Z,12.60
2018-11-11T01:48:02.727Z,12.51
2018-11-11T01:48:03.327Z,12.54
2018-11-11T01:48:03.927Z,12.51
2018-11-11T01:48:04.528Z,12.54
2018-11-11T01:48:59.006Z,12.54
2018-11-11T01:48:59.607Z,12.56
2018-11-11T01:49:00.204Z,12.56
2018-11-11T01:49:00.804Z,12.51
2018-11-11T01:49:01.404Z,12.54
2018-11-11T01:49:02.005Z,12.52
2018-11-11T01:49:02.604Z,12.63
2018-11-11T01:49:03.206Z,12.62
2018-11-11T01:49:57.683Z,12.52
2018-11-11T01:49:58.281Z,12.52
2018-11-11T01:49:58.883Z,12.60
2018-11-11T01:49:59.480Z,12.57
2018-11-11T01:50:00.080Z,12.59
2018-11-11T01:50:00.679Z,12.54
2018-11-11T01:50:01.283Z,12.56
2018-11-11T01:50:01.880Z,12.54
2018-11-11T01:50:55.338Z,12.64
2018-11-11T01:50:55.932Z,12.60
2018-11-11T01:50:56.531Z,12.56
2018-11-11T01:50:57.131Z,12.59
2018-11-11T01:50:57.731Z,12.59
2018-11-11T01:50:58.330Z,12.60
2018-11-11T01:50:58.931Z,12.60
2018-11-11T01:50:59.530Z,12.60
2018-11-11T01:51:54.034Z,12.57
2018-11-11T01:51:54.608Z,12.62
2018-11-11T01:51:55.207Z,12.64
2018-11-11T01:51:55.807Z,12.66
2018-11-11T01:51:56.407Z,12.57
2018-11-11T01:51:57.008Z,12.66
2018-11-11T01:51:57.606Z,12.63
2018-11-11T01:51:58.206Z,12.63
2018-11-11T01:52:51.663Z,12.60
2018-11-11T01:52:52.260Z,12.52
2018-11-11T01:52:52.861Z,12.59
2018-11-11T01:52:53.459Z,12.66
2018-11-11T01:52:54.060Z,12.70
2018-11-11T01:52:54.659Z,12.52
2018-11-11T01:52:55.260Z,12.56
2018-11-11T01:52:55.859Z,12.57
2018-11-11T01:53:50.336Z,12.49
2018-11-11T01:53:50.936Z,12.71
2018-11-11T01:53:51.535Z,12.69
2018-11-11T01:53:52.138Z,12.52
2018-11-11T01:53:52.733Z,12.66
2018-11-11T01:53:53.335Z,12.54
2018-11-11T01:53:53.935Z,12.77
2018-11-11T01:53:54.533Z,12.60
2018-11-11T01:54:47.991Z,12.67
2018-11-11T01:54:48.588Z,12.59
2018-11-11T01:54:49.186Z,12.74
2018-11-11T01:54:49.787Z,12.63
2018-11-11T01:54:50.387Z,12.63
2018-11-11T01:54:50.986Z,12.57
2018-11-11T01:54:51.586Z,12.67
2018-11-11T01:54:52.187Z,12.62
2018-11-11T01:55:45.642Z,12.63
2018-11-11T01:55:46.242Z,12.64
2018-11-11T01:55:46.838Z,12.64
2018-11-11T01:55:47.438Z,12.62
2018-11-11T01:55:48.044Z,12.62
2018-11-11T01:55:48.639Z,12.70
2018-11-11T01:55:49.239Z,12.60
2018-11-11T01:55:49.840Z,12.60
2018-11-11T01:56:44.347Z,12.59
2018-11-11T01:56:44.913Z,12.64
2018-11-11T01:56:45.514Z,12.62
2018-11-11T01:56:46.113Z,12.60
2018-11-11T01:56:46.712Z,12.62
2018-11-11T01:56:47.338Z,12.63
2018-11-11T01:56:47.916Z,12.70
2018-11-11T01:56:48.514Z,12.62
2018-11-11T01:57:43.007Z,12.64
2018-11-11T01:57:43.590Z,12.69
2018-11-11T01:57:44.189Z,12.64
2018-11-11T01:57:44.791Z,12.69
2018-11-11T01:57:45.391Z,12.63
2018-11-11T01:57:45.991Z,12.63
2018-11-11T01:57:46.589Z,12.64
2018-11-11T01:57:47.190Z,12.70
2018-11-11T01:58:40.645Z,12.60
2018-11-11T01:58:41.243Z,12.64
2018-11-11T01:58:41.842Z,12.64
2018-11-11T01:58:42.441Z,12.67
2018-11-11T01:58:43.042Z,12.67
2018-11-11T01:58:43.641Z,12.64
2018-11-11T01:58:44.242Z,12.70
2018-11-11T01:58:44.841Z,12.67
2018-11-11T01:59:39.323Z,12.70
2018-11-11T01:59:39.917Z,12.70
2018-11-11T01:59:40.516Z,12.71
2018-11-11T01:59:41.116Z,12.64
2018-11-11T01:59:41.716Z,12.71
2018-11-11T01:59:42.316Z,12.69
2018-11-11T01:59:42.916Z,12.66
2018-11-11T01:59:43.518Z,12.70
2018-11-11T02:00:37.995Z,12.70
2018-11-11T02:00:38.593Z,12.67
2018-11-11T02:00:39.194Z,12.70
2018-11-11T02:00:39.794Z,12.70
2018-11-11T02:00:40.393Z,12.66
2018-11-11T02:00:40.992Z,12.70
2018-11-11T02:00:41.592Z,12.66
2018-11-11T02:00:42.192Z,12.71
2018-11-11T02:01:35.675Z,12.66
2018-11-11T02:01:36.246Z,12.70
2018-11-11T02:01:36.846Z,12.67
2018-11-11T02:01:37.451Z,12.69
2018-11-11T02:01:38.045Z,12.74
2018-11-11T02:01:38.645Z,12.70
2018-11-11T02:01:39.244Z,12.78
2018-11-11T02:01:39.845Z,12.77
2018-11-11T02:02:34.323Z,12.74
2018-11-11T02:02:34.921Z,12.70
2018-11-11T02:02:35.521Z,12.71
2018-11-11T02:02:36.120Z,12.74
2018-11-11T02:02:36.721Z,12.79
2018-11-11T02:02:37.319Z,12.71
2018-11-11T02:02:37.923Z,12.77
2018-11-11T02:02:38.524Z,12.74
2018-11-11T02:03:32.998Z,12.71
2018-11-11T02:03:33.598Z,12.71
2018-11-11T02:03:34.196Z,12.69
2018-11-11T02:03:34.796Z,12.71
2018-11-11T02:03:35.397Z,12.75
2018-11-11T02:03:35.995Z,12.75
2018-11-11T02:03:36.596Z,12.75
2018-11-11T02:03:37.197Z,12.78
2018-11-11T02:04:30.653Z,12.74
2018-11-11T02:04:31.249Z,12.79
2018-11-11T02:04:31.849Z,12.82
2018-11-11T02:04:32.448Z,12.77
2018-11-11T02:04:33.049Z,12.74
2018-11-11T02:04:33.649Z,12.81
2018-11-11T02:04:34.248Z,12.74
2018-11-11T02:04:34.848Z,12.75
2018-11-11T02:05:29.326Z,12.75
2018-11-11T02:05:29.925Z,12.84
2018-11-11T02:05:30.527Z,12.74
2018-11-11T02:05:31.123Z,12.78
2018-11-11T02:05:31.723Z,12.78
2018-11-11T02:05:32.322Z,12.81
2018-11-11T02:05:32.923Z,12.82
2018-11-11T02:05:33.523Z,12.81
2018-11-11T02:06:28.027Z,12.79
2018-11-11T02:06:28.600Z,12.75
2018-11-11T02:06:29.201Z,12.74
2018-11-11T02:06:29.799Z,12.78
2018-11-11T02:06:30.399Z,12.71
2018-11-11T02:06:31.001Z,12.77
2018-11-11T02:06:31.599Z,12.84
2018-11-11T02:06:32.203Z,12.84
2018-11-11T02:07:25.655Z,12.75
2018-11-11T02:07:26.252Z,12.79
2018-11-11T02:07:26.852Z,12.71
2018-11-11T02:07:27.452Z,12.82
2018-11-11T02:07:28.055Z,12.74
2018-11-11T02:07:28.652Z,12.74
2018-11-11T02:07:29.252Z,12.79
2018-11-11T02:07:29.852Z,12.74
2018-11-11T02:08:24.329Z,12.74
2018-11-11T02:08:24.927Z,12.82
2018-11-11T02:08:25.529Z,12.82
2018-11-11T02:08:26.127Z,12.87
2018-11-11T02:08:26.727Z,12.88
2018-11-11T02:08:27.327Z,12.88
2018-11-11T02:08:27.927Z,12.74
2018-11-11T02:08:28.526Z,12.78
2018-11-11T02:09:23.005Z,12.74
2018-11-11T02:09:23.603Z,12.79
2018-11-11T02:09:24.201Z,12.81
2018-11-11T02:09:24.803Z,12.87
2018-11-11T02:09:25.402Z,12.84
2018-11-11T02:09:26.003Z,12.88
2018-11-11T02:09:26.601Z,12.78
2018-11-11T02:09:27.203Z,12.85
2018-11-11T02:10:20.657Z,12.82
2018-11-11T02:10:21.255Z,12.85
2018-11-11T02:10:21.855Z,12.88
2018-11-11T02:10:22.455Z,12.93
2018-11-11T02:10:23.054Z,12.84
2018-11-11T02:10:23.654Z,12.84
2018-11-11T02:10:24.254Z,12.84
2018-11-11T02:10:24.855Z,12.87
2018-11-11T02:11:19.357Z,12.78
2018-11-11T02:11:19.930Z,12.87
2018-11-11T02:11:20.530Z,12.78
2018-11-11T02:11:21.128Z,12.77
2018-11-11T02:11:21.729Z,12.74
2018-11-11T02:11:22.330Z,12.89
2018-11-11T02:11:22.930Z,12.88
2018-11-11T02:11:23.528Z,12.89
2018-11-11T02:12:16.991Z,12.85
2018-11-11T02:12:17.583Z,12.87
2018-11-11T02:12:18.182Z,12.84
2018-11-11T02:12:18.784Z,12.89
2018-11-11T02:12:19.383Z,12.87
2018-11-11T02:12:19.982Z,12.78
2018-11-11T02:12:20.581Z,12.87
2018-11-11T02:12:21.182Z,12.77
2018-11-11T02:13:14.640Z,12.88
2018-11-11T02:13:15.234Z,12.89
2018-11-11T02:13:15.834Z,12.87
2018-11-11T02:13:16.435Z,12.79
2018-11-11T02:13:17.036Z,12.87
2018-11-11T02:13:17.633Z,12.89
2018-11-11T02:13:18.235Z,12.85
2018-11-11T02:13:18.833Z,12.88
2018-11-11T02:14:13.312Z,12.82
2018-11-11T02:14:13.909Z,12.87
2018-11-11T02:14:14.510Z,12.92
2018-11-11T02:14:15.108Z,12.95
2018-11-11T02:14:15.709Z,12.82
2018-11-11T02:14:16.308Z,12.89
2018-11-11T02:14:16.907Z,12.92
2018-11-11T02:14:17.509Z,12.95
2018-11-11T02:15:11.988Z,12.84
2018-11-11T02:15:12.585Z,12.93
2018-11-11T02:15:13.185Z,12.89
2018-11-11T02:15:13.786Z,12.92
2018-11-11T02:15:14.388Z,12.77
2018-11-11T02:15:14.984Z,12.89
2018-11-11T02:15:15.589Z,12.81
2018-11-11T02:15:16.186Z,12.82
2018-11-11T02:16:09.640Z,12.75
2018-11-11T02:16:10.237Z,12.79
2018-11-11T02:16:10.838Z,12.84
2018-11-11T02:16:11.437Z,12.85
2018-11-11T02:16:12.036Z,12.84
2018-11-11T02:16:12.637Z,12.92
2018-11-11T02:16:13.237Z,12.88
2018-11-11T02:16:13.837Z,12.84
2018-11-11T02:17:07.318Z,12.84
2018-11-11T02:17:07.890Z,12.87
2018-11-11T02:17:08.490Z,12.88
2018-11-11T02:17:09.089Z,12.88
2018-11-11T02:17:09.688Z,12.88
2018-11-11T02:17:10.290Z,12.84
2018-11-11T02:17:10.890Z,12.88
2018-11-11T02:17:11.488Z,12.77
2018-11-11T02:18:04.945Z,12.79
2018-11-11T02:18:05.542Z,12.88
2018-11-11T02:18:06.140Z,12.93
2018-11-11T02:18:06.740Z,12.87
2018-11-11T02:18:07.343Z,12.87
2018-11-11T02:18:07.940Z,12.95
2018-11-11T02:18:08.540Z,12.82
2018-11-11T02:18:09.140Z,12.88
2018-11-11T02:19:02.595Z,12.85
2018-11-11T02:19:03.194Z,12.88
2018-11-11T02:19:03.792Z,12.87
2018-11-11T02:19:04.393Z,12.92
2018-11-11T02:19:04.993Z,12.89
2018-11-11T02:19:05.598Z,12.92
2018-11-11T02:19:06.190Z,12.85
2018-11-11T02:19:06.790Z,12.87
2018-11-11T02:20:00.246Z,12.88
2018-11-11T02:20:00.844Z,12.93
2018-11-11T02:20:01.445Z,12.84
2018-11-11T02:20:02.045Z,12.87
2018-11-11T02:20:02.643Z,12.89
2018-11-11T02:20:03.244Z,12.88
2018-11-11T02:20:03.845Z,12.97
2018-11-11T02:20:04.444Z,12.84
2018-11-11T02:20:59.005Z,12.85
2018-11-11T02:20:59.523Z,12.92
2018-11-11T02:21:00.153Z,12.96
2018-11-11T02:21:00.725Z,12.97
2018-11-11T02:21:01.377Z,12.85
2018-11-11T02:21:01.934Z,12.85
2018-11-11T02:21:02.558Z,12.99
2018-11-11T02:21:03.162Z,12.99
2018-11-11T02:21:56.606Z,12.95
2018-11-11T02:21:57.171Z,12.93
2018-11-11T02:21:57.771Z,12.99
2018-11-11T02:21:58.375Z,12.95
2018-11-11T02:21:58.976Z,13.02
2018-11-11T02:21:59.569Z,13.04
2018-11-11T02:22:00.169Z,13.06
2018-11-11T02:22:00.770Z,12.95
2018-11-11T02:22:54.227Z,12.99
2018-11-11T02:22:54.823Z,13.04
2018-11-11T02:22:55.423Z,12.99
2018-11-11T02:22:56.030Z,12.95
2018-11-11T02:22:56.622Z,13.02
2018-11-11T02:22:57.222Z,12.97
2018-11-11T02:22:57.826Z,13.00
2018-11-11T02:22:58.421Z,13.04
2018-11-11T02:23:51.878Z,13.04
2018-11-11T02:23:52.475Z,13.03
2018-11-11T02:23:53.075Z,13.00
2018-11-11T02:23:53.675Z,12.97
2018-11-11T02:23:54.274Z,13.02
2018-11-11T02:23:54.882Z,13.03
2018-11-11T02:23:55.476Z,13.03
2018-11-11T02:23:56.076Z,13.00
2018-11-11T02:24:50.557Z,12.97
2018-11-11T02:24:51.149Z,13.02
2018-11-11T02:24:51.750Z,12.99
2018-11-11T02:24:52.347Z,13.03
2018-11-11T02:24:52.949Z,13.06
2018-11-11T02:24:53.548Z,13.03
2018-11-11T02:24:54.147Z,13.06
2018-11-11T02:24:54.748Z,13.06
2018-11-11T02:25:49.227Z,13.04
2018-11-11T02:25:49.825Z,13.09
2018-11-11T02:25:50.426Z,12.99
2018-11-11T02:25:51.025Z,13.11
2018-11-11T02:25:51.624Z,13.02
2018-11-11T02:25:52.225Z,13.07
2018-11-11T02:25:52.825Z,13.02
2018-11-11T02:25:53.425Z,13.07
2018-11-11T02:26:47.906Z,13.04
2018-11-11T02:26:48.501Z,13.11
2018-11-11T02:26:49.101Z,13.02
2018-11-11T02:26:49.701Z,13.11
2018-11-11T02:26:50.301Z,13.06
2018-11-11T02:26:50.900Z,13.11
2018-11-11T02:26:51.501Z,13.04
2018-11-11T02:26:52.101Z,13.11
2018-11-11T02:27:45.582Z,13.06
2018-11-11T02:27:46.154Z,13.03
2018-11-11T02:27:46.757Z,13.06
2018-11-11T02:27:47.355Z,13.06
2018-11-11T02:27:47.956Z,13.03
2018-11-11T02:27:48.553Z,13.11
2018-11-11T02:27:49.154Z,13.09
2018-11-11T02:27:49.753Z,13.07
2018-11-11T02:28:43.209Z,13.15
2018-11-11T02:28:43.807Z,13.04
2018-11-11T02:28:44.406Z,13.07
2018-11-11T02:28:45.006Z,13.12
2018-11-11T02:28:45.605Z,13.04
2018-11-11T02:28:46.206Z,13.07
2018-11-11T02:28:46.805Z,13.09
2018-11-11T02:28:47.404Z,13.11
2018-11-11T02:29:41.884Z,13.07
2018-11-11T02:29:42.485Z,13.11
2018-11-11T02:29:43.080Z,13.06
2018-11-11T02:29:43.682Z,13.12
2018-11-11T02:29:44.280Z,13.07
2018-11-11T02:29:44.881Z,13.11
2018-11-11T02:29:45.480Z,13.07
2018-11-11T02:29:46.080Z,13.17
2018-11-11T02:30:39.543Z,13.14
2018-11-11T02:30:40.135Z,13.11
2018-11-11T02:30:40.733Z,13.14
2018-11-11T02:30:41.333Z,13.14
2018-11-11T02:30:41.931Z,13.18
2018-11-11T02:30:42.532Z,13.14
2018-11-11T02:30:43.137Z,13.20
2018-11-11T02:30:43.732Z,13.12
2018-11-11T02:31:37.188Z,13.20
2018-11-11T02:31:37.785Z,13.12
2018-11-11T02:31:38.386Z,13.15
2018-11-11T02:31:38.985Z,13.24
2018-11-11T02:31:39.584Z,13.14
2018-11-11T02:31:40.186Z,13.20
2018-11-11T02:31:40.786Z,13.22
2018-11-11T02:31:41.385Z,13.21
2018-11-11T02:32:35.897Z,13.09
2018-11-11T02:32:36.460Z,13.21
2018-11-11T02:32:37.065Z,13.27
2018-11-11T02:32:37.660Z,13.22
2018-11-11T02:32:38.260Z,13.22
2018-11-11T02:32:38.859Z,13.25
2018-11-11T02:32:39.458Z,13.22
2018-11-11T02:32:40.060Z,13.21
2018-11-11T02:33:34.537Z,13.18
2018-11-11T02:33:35.135Z,13.20
2018-11-11T02:33:35.738Z,13.22
2018-11-11T02:33:36.336Z,13.29
2018-11-11T02:33:36.935Z,13.20
2018-11-11T02:33:37.534Z,13.25
2018-11-11T02:33:38.135Z,13.27
2018-11-11T02:33:38.735Z,13.20
2018-11-11T02:34:33.214Z,13.21
2018-11-11T02:34:33.811Z,13.27
2018-11-11T02:34:34.411Z,13.29
2018-11-11T02:34:35.014Z,13.29
2018-11-11T02:34:35.611Z,13.21
2018-11-11T02:34:36.210Z,13.24
2018-11-11T02:34:36.811Z,13.24
2018-11-11T02:34:37.412Z,13.24
2018-11-11T02:35:31.892Z,13.20
2018-11-11T02:35:32.489Z,13.21
2018-11-11T02:35:33.087Z,13.20
2018-11-11T02:35:33.686Z,13.24
2018-11-11T02:35:34.289Z,13.22
2018-11-11T02:35:34.885Z,13.20
2018-11-11T02:35:35.484Z,13.25
2018-11-11T02:35:36.084Z,13.22
2018-11-11T02:36:29.541Z,13.22
2018-11-11T02:36:30.150Z,13.29
2018-11-11T02:36:30.737Z,13.22
2018-11-11T02:36:31.338Z,13.25
2018-11-11T02:36:31.938Z,13.32
2018-11-11T02:36:32.538Z,13.29
2018-11-11T02:36:33.145Z,13.25
2018-11-11T02:36:33.740Z,13.20
2018-11-11T02:37:28.238Z,13.30
2018-11-11T02:37:28.893Z,13.30
2018-11-11T02:37:29.504Z,13.30
2018-11-11T02:37:30.079Z,13.32
2018-11-11T02:37:30.676Z,13.27
2018-11-11T02:37:31.275Z,13.29
2018-11-11T02:37:31.878Z,13.37
2018-11-11T02:37:32.437Z,13.38
2018-11-11T02:38:26.920Z,13.29
2018-11-11T02:38:27.502Z,13.29
2018-11-11T02:38:28.093Z,13.37
2018-11-11T02:38:28.694Z,13.30
2018-11-11T02:38:29.291Z,13.32
2018-11-11T02:38:29.890Z,13.38
2018-11-11T02:38:30.492Z,13.33
2018-11-11T02:38:31.090Z,13.30
2018-11-11T02:39:24.544Z,13.33
2018-11-11T02:39:25.142Z,13.33
2018-11-11T02:39:25.744Z,13.29
2018-11-11T02:39:26.346Z,13.36
2018-11-11T02:39:26.943Z,13.37
2018-11-11T02:39:27.543Z,13.32
2018-11-11T02:39:28.142Z,13.37
2018-11-11T02:39:28.743Z,13.33
2018-11-11T02:40:23.221Z,13.36
2018-11-11T02:40:23.823Z,13.37
2018-11-11T02:40:24.419Z,13.37
2018-11-11T02:40:25.052Z,13.37
2018-11-11T02:40:25.617Z,13.32
2018-11-11T02:40:26.217Z,13.33
2018-11-11T02:40:26.816Z,13.25
2018-11-11T02:40:27.416Z,13.36
2018-11-11T02:41:21.896Z,13.27
2018-11-11T02:41:22.492Z,13.32
2018-11-11T02:41:23.093Z,13.32
2018-11-11T02:41:23.694Z,13.40
2018-11-11T02:41:24.293Z,13.30
2018-11-11T02:41:24.897Z,13.37
2018-11-11T02:41:25.492Z,13.43
2018-11-11T02:41:26.093Z,13.38
2018-11-11T02:42:20.573Z,13.30
2018-11-11T02:42:21.171Z,13.37
2018-11-11T02:42:21.770Z,13.30
2018-11-11T02:42:22.369Z,13.33
2018-11-11T02:42:22.972Z,13.43
2018-11-11T02:42:23.570Z,13.44
2018-11-11T02:42:24.169Z,13.40
2018-11-11T02:42:24.768Z,13.47
2018-11-11T02:43:18.250Z,13.29
2018-11-11T02:43:18.823Z,13.41
2018-11-11T02:43:19.420Z,13.33
2018-11-11T02:43:20.023Z,13.38
2018-11-11T02:43:20.622Z,13.33
2018-11-11T02:43:21.221Z,13.27
2018-11-11T02:43:21.824Z,13.43
2018-11-11T02:43:22.425Z,13.30
2018-11-11T02:44:18.989Z,13.33
2018-11-11T02:44:19.493Z,13.36
2018-11-11T02:44:20.092Z,13.33
2018-11-11T02:44:20.691Z,13.30
2018-11-11T02:44:21.291Z,13.32
2018-11-11T02:45:14.758Z,13.37
2018-11-11T02:45:15.353Z,13.36
2018-11-11T02:45:15.957Z,13.30
2018-11-11T02:45:16.552Z,13.30
2018-11-11T02:45:17.155Z,13.33
2018-11-11T02:45:17.753Z,13.41
2018-11-11T02:45:18.354Z,13.30
2018-11-11T02:45:19.042Z,13.33
2018-11-11T02:46:12.409Z,13.41
2018-11-11T02:46:13.006Z,13.43
2018-11-11T02:46:13.605Z,13.33
2018-11-11T02:46:14.204Z,13.37
2018-11-11T02:46:14.805Z,13.33
2018-11-11T02:46:15.404Z,13.36
2018-11-11T02:46:16.004Z,13.40
2018-11-11T02:46:16.604Z,13.43
2018-11-11T02:47:11.083Z,13.40
2018-11-11T02:47:11.681Z,13.30
2018-11-11T02:47:12.285Z,13.43
2018-11-11T02:47:12.881Z,13.38
2018-11-11T02:47:13.480Z,13.43
2018-11-11T02:47:14.079Z,13.43
2018-11-11T02:47:14.680Z,13.38
2018-11-11T02:47:15.279Z,13.36
2018-11-11T02:48:08.765Z,13.43
2018-11-11T02:48:09.332Z,13.40
2018-11-11T02:48:09.933Z,13.37
2018-11-11T02:48:10.532Z,13.41
2018-11-11T02:48:11.131Z,13.32
2018-11-11T02:48:11.733Z,13.43
2018-11-11T02:48:12.332Z,13.44
2018-11-11T02:48:12.931Z,13.49
2018-11-11T02:49:07.410Z,13.37
2018-11-11T02:49:08.007Z,13.46
2018-11-11T02:49:08.606Z,13.36
2018-11-11T02:49:09.207Z,13.37
2018-11-11T02:49:09.807Z,13.36
2018-11-11T02:49:10.406Z,13.33
2018-11-11T02:49:11.007Z,13.40
2018-11-11T02:49:11.606Z,13.37
2018-11-11T02:50:06.087Z,13.49
2018-11-11T02:50:06.683Z,13.47
2018-11-11T02:50:07.294Z,13.47
2018-11-11T02:50:07.947Z,13.33
2018-11-11T02:50:08.482Z,13.37
2018-11-11T02:50:09.083Z,13.47
2018-11-11T02:50:09.684Z,13.41
2018-11-11T02:50:10.285Z,13.44
2018-11-11T02:51:03.738Z,13.41
2018-11-11T02:51:04.337Z,13.40
2018-11-11T02:51:04.937Z,13.52
2018-11-11T02:51:05.536Z,13.43
2018-11-11T02:51:06.137Z,13.40
2018-11-11T02:51:06.736Z,13.52
2018-11-11T02:51:07.335Z,13.40
2018-11-11T02:51:07.936Z,13.41
2018-11-11T02:52:02.415Z,13.47
2018-11-11T02:52:03.011Z,13.54
2018-11-11T02:52:03.610Z,13.40
2018-11-11T02:52:04.210Z,13.36
2018-11-11T02:52:04.810Z,13.40
2018-11-11T02:52:05.409Z,13.52
2018-11-11T02:52:06.010Z,13.47
2018-11-11T02:52:06.610Z,13.54
2018-11-11T02:53:00.090Z,13.52
2018-11-11T02:53:00.666Z,13.41
2018-11-11T02:53:01.263Z,13.43
2018-11-11T02:53:01.896Z,13.46
2018-11-11T02:53:02.463Z,13.44
2018-11-11T02:53:03.062Z,13.43
2018-11-11T02:53:03.663Z,13.40
2018-11-11T02:53:04.263Z,13.52
2018-11-11T02:53:58.743Z,13.44
2018-11-11T02:53:59.339Z,13.47
2018-11-11T02:53:59.939Z,13.49
2018-11-11T02:54:00.538Z,13.51
2018-11-11T02:54:01.139Z,13.52
2018-11-11T02:54:01.738Z,13.51
2018-11-11T02:54:02.358Z,13.46
2018-11-11T02:54:02.940Z,13.56
2018-11-11T02:54:57.417Z,13.44
2018-11-11T02:54:58.013Z,13.54
2018-11-11T02:54:58.616Z,13.52
2018-11-11T02:54:59.213Z,13.55
2018-11-11T02:54:59.814Z,13.44
2018-11-11T02:55:00.417Z,13.55
2018-11-11T02:55:01.015Z,13.52
2018-11-11T02:55:01.614Z,13.56
2018-11-11T02:55:56.092Z,13.51
2018-11-11T02:55:56.690Z,13.52
2018-11-11T02:55:57.289Z,13.55
2018-11-11T02:55:57.888Z,13.51
2018-11-11T02:55:58.489Z,13.55
2018-11-11T02:55:59.089Z,13.54
2018-11-11T02:55:59.689Z,13.47
2018-11-11T02:56:00.289Z,13.52
2018-11-11T02:56:53.744Z,13.54
2018-11-11T02:56:54.342Z,13.49
2018-11-11T02:56:54.944Z,13.49
2018-11-11T02:56:55.543Z,13.51
2018-11-11T02:56:56.142Z,13.49
2018-11-11T02:56:56.741Z,13.52
2018-11-11T02:56:57.342Z,13.51
2018-11-11T02:56:57.942Z,13.51
2018-11-11T02:57:51.428Z,13.54
2018-11-11T02:57:51.993Z,13.52
2018-11-11T02:57:52.594Z,13.54
2018-11-11T02:57:53.193Z,13.56
2018-11-11T02:57:53.794Z,13.52
2018-11-11T02:57:54.398Z,13.52
2018-11-11T02:57:54.993Z,13.47
2018-11-11T02:57:55.591Z,13.54
2018-11-11T02:58:50.072Z,13.47
2018-11-11T02:58:50.668Z,13.51
2018-11-11T02:58:51.268Z,13.59
2018-11-11T02:58:51.868Z,13.54
2018-11-11T02:58:52.469Z,13.54
2018-11-11T02:58:53.069Z,13.56
2018-11-11T02:58:53.669Z,13.55
2018-11-11T02:58:54.269Z,13.54
2018-11-11T02:59:48.748Z,13.54
2018-11-11T02:59:49.348Z,13.52
2018-11-11T02:59:49.945Z,13.56
2018-11-11T02:59:50.545Z,13.52
2018-11-11T02:59:51.145Z,13.55
2018-11-11T02:59:51.746Z,13.52
2018-11-11T02:59:52.344Z,13.54
2018-11-11T02:59:52.944Z,13.58
2018-11-11T03:00:46.400Z,13.51
2018-11-11T03:00:46.998Z,13.58
2018-11-11T03:00:47.599Z,13.59
2018-11-11T03:00:48.198Z,13.56
2018-11-11T03:00:48.798Z,13.58
2018-11-11T03:00:49.427Z,13.49
2018-11-11T03:00:49.997Z,13.47
2018-11-11T03:00:50.598Z,13.54
2018-11-11T03:01:45.075Z,13.54
2018-11-11T03:01:45.672Z,13.54
2018-11-11T03:01:46.272Z,13.52
2018-11-11T03:01:46.873Z,13.51
2018-11-11T03:01:47.478Z,13.55
2018-11-11T03:01:48.109Z,13.49
2018-11-11T03:01:48.673Z,13.52
2018-11-11T03:01:49.272Z,13.56
2018-11-11T03:02:42.729Z,13.54
2018-11-11T03:02:43.325Z,13.56
2018-11-11T03:02:43.925Z,13.55
2018-11-11T03:02:44.524Z,13.55
2018-11-11T03:02:45.124Z,13.49
2018-11-11T03:02:45.727Z,13.55
2018-11-11T03:02:46.323Z,13.55
2018-11-11T03:02:46.924Z,13.51